Κάμερα προς Χιονοδρομικό webcam facing ski center


Κάμερα προς Νότο webcam facing south


Ραντάρ Κεραυνών blitzortung!


Ραντάρ Βροχής rain snow radar


Άλλες σελίδες καιρού:

Hotel Skamnos

Arachova Weather Station

Skamnos Weather Station

Skamnos Weather2

Arachova Weather2

WU Skamnos

WU Arachova


Γειτονικοί σταθμοί:

Parnassos Snow Forecast

Parnassos Snow Report

Kelaria 1950m

Kelaria 2240m

Fterolaka 2080m



Thunderstorms From: 27-07-2017 13:00 Until: 19:00 warning for: Thunderstorms Level: Yellow info button
Τοπικές καταιγίδες.Locally thunderstorms. 

Εκθέσεις METAR

  
1089 - Arachova Meteo, Greece
Distance from station: Ν 10km
Updated: 27-07-2017 03:34
Μερικώς νεφελώδης
Μερικώς νεφελώδης  
 Ανεμος από ΔΒΔ
'Ανεμος: ΔΒΔ 2 km/h
Θερμοκρασία:  18°C
Σημείο Δρόσου:  12°C
Υγρασία:  68%
Βαρόμετρο:  1002 hPa
Νεφελώδης:  Μερικώς νεφελώδης
Visibility:  9 km
Cloud details:  Μερικώς νεφελώδης 732 m
2017/07/27 00:34 1089 270034Z 29201KT 9000 SCT024 18/12 Q1002
1155 - Arachova2, Greece
Distance from station: Ν 10km
Updated: 27-07-2017 03:34
Μερικώς νεφελώδης
Μερικώς νεφελώδης  
 Ανεμος από ΒΔ
'Ανεμος: ΒΔ 6 km/h
Θερμοκρασία:  16°C
Σημείο Δρόσου:  12°C
Υγρασία:  77%
Βαρόμετρο:  1003 hPa
Νεφελώδης:  Μερικώς νεφελώδης
Visibility:  8 km
Cloud details:  Μερικώς νεφελώδης 549 m
2017/07/27 00:34 1155 270034Z 31503KT 8000 SCT018 16/12 Q1003
1184 - Arachova VillaFiloxenia, Greece
Distance from station: Ν 10km
Updated: 09-05-2017 15:04
NOT Current
Μερικώς νεφελώδης
Μερικώς νεφελώδης  
 Ανεμος από calm
'Ανεμος: Άπνοια
Θερμοκρασία:  17°C
Σημείο Δρόσου:  9°C
Υγρασία:  59%
Βαρόμετρο:  1007 hPa
Νεφελώδης:  Μερικώς νεφελώδης
Visibility:  10 km
Cloud details:  Μερικώς νεφελώδης 1006 m
2017/05/09 12:04 1184 091204Z 00000KT 9999 SCT033 17/09 Q1007
1250 - Parnassos Kelaria 1950m, Greece
Distance from station: Α 3km
Updated: 27-07-2017 03:34
Λίγα σύννεφα
Λίγα σύννεφα  
 Ανεμος από ΒΑ
'Ανεμος: ΒΑ 7 km/h
Θερμοκρασία:  12°C
Σημείο Δρόσου:  4°C
Υγρασία:  58%
Βαρόμετρο:  1004 hPa
Νεφελώδης:  Λίγα σύννεφα
Visibility:  10 km
Cloud details:  Λίγα σύννεφα 1036 m
2017/07/27 00:34 1250 270034Z 04504KT 9999 FEW034 12/04 Q1004
1126 - Parnassos Fterolaka 2080m, Greece
Distance from station: Α 3km
Updated: 21-03-2015 01:04
NOT Current
Λίγα σύννεφα
Λίγα σύννεφα  
 Ανεμος από calm
'Ανεμος: Άπνοια
Θερμοκρασία:  -11°C
Σημείο Δρόσου:  -11°C
Υγρασία:  100%
Βαρόμετρο:  1019 hPa
Νεφελώδης:  Λίγα σύννεφα
Visibility:  6 km
Cloud details:  Λίγα σύννεφα 305 m
2015/03/20 23:04 1126 202304Z 00000KT 6000 FEW010 M11/M11 Q1019
1382 - Parnassos Helcules 2240m, Greece
Distance from station: Α 3km
Updated: 20-04-2015 13:20
NOT Current
Ομίχλη
Ομίχλη  
 Ανεμος από ΝΔ
'Ανεμος: ΝΔ 7 km/h
Θερμοκρασία:  1°C
Wind Chill:  -2°C
Σημείο Δρόσου:  1°C
Υγρασία:  100%
Βαρόμετρο:  1009 hPa
Περίληψη:  Ομίχλη
Visibility:  5 km
2015/04/20 10:20 1382 201020Z 22504KT 5000 FG 01/01 Q1009
1219 - Anrikyra, Greece
Distance from station: Ν 40km
Updated: 27-07-2017 03:34
Λίγα σύννεφα
Λίγα σύννεφα  
 Ανεμος από ΒΔ
'Ανεμος: ΒΔ 6 km/h
Θερμοκρασία:  24°C
Σημείο Δρόσου:  15°C
Υγρασία:  57%
Βαρόμετρο:  1002 hPa
Νεφελώδης:  Λίγα σύννεφα
Visibility:  10 km
Cloud details:  Λίγα σύννεφα 1036 m
2017/07/27 00:34 1219 270034Z 31503KT 9999 FEW034 24/15 Q1002
1015 - Galaxeidi, Greece
Distance from station: Ν 40km
Updated: 27-07-2017 03:33
Λίγα σύννεφα
Λίγα σύννεφα  
 Ανεμος από Δ
'Ανεμος: Δ 19 km/h
Θερμοκρασία:  24°C
Σημείο Δρόσου:  15°C
Υγρασία:  57%
Βαρόμετρο:  1012 hPa
Νεφελώδης:  Λίγα σύννεφα
Visibility:  10 km
Cloud details:  Λίγα σύννεφα 1097 m
2017/07/27 00:33 1015 270033Z 27010KT 9999 FEW036 24/15 Q1012
1088 - Amfikleia, Greece
Distance from station: Β 10km
Updated: 27-07-2017 03:34
Μερικώς νεφελώδης
Μερικώς νεφελώδης  
 Ανεμος από calm
'Ανεμος: Άπνοια
Θερμοκρασία:  20°C
Σημείο Δρόσου:  13°C
Υγρασία:  64%
Βαρόμετρο:  1002 hPa
Νεφελώδης:  Μερικώς νεφελώδης
Visibility:  9 km
Cloud details:  Μερικώς νεφελώδης 853 m
2017/07/27 00:34 1088 270034Z 00000KT 9000 SCT028 20/13 Q1002
1337 - Polydroso, Greece
Distance from station: Β 10km
Updated: 27-07-2017 03:34
Λίγα σύννεφα
Λίγα σύννεφα  
 Ανεμος από ΝΑ
'Ανεμος: ΝΑ 2 km/h
Θερμοκρασία:  21°C
Σημείο Δρόσου:  13°C
Υγρασία:  60%
Βαρόμετρο:  1003 hPa
Νεφελώδης:  Λίγα σύννεφα
Visibility:  10 km
Cloud details:  Λίγα σύννεφα 975 m
2017/07/27 00:34 1337 270034Z 13501KT 9999 FEW032 21/13 Q1003

Αρχικά scripts από  Saratoga-weather.org Adapted for the template by  Weerstation Leuven